Santa Lucia, Brazil
Current Conditions -  °F | °C
As of 6:00 AM on Monday 20 Oct 2014 (Local Time) from SBCA Reporting Station
Thunderstorm Thunderstorm  
Wind Chill: 63°   Ceiling: Unl
Heat Index: 63°   Visibility: 6mi
Dew Point: 63°   Wind: 14mph
Humidity: 100%   Direction: 80°E
Pressure: NA   Gusts: NA
Location:  25.41°S, 53.57°W
Report Text: SBCA 200900Z 08012KT 9999 -TSRA FEW006 SCT030 FEW040CB 17/17 Q1015
Loading
Personal Weather Stations






























Interactive Weather Map
Tropical Storm Tracking
New forecast layout! Learn more

10-Day Weather Forecast

Advertisements
Track Severe Weather on mobile